Mao, Spain
Current Conditions -  °F | °C
As of 5:00 AM on Thursday 18 Dec 2014 (Local Time) from LEMH Reporting Station
Few Clouds Few Clouds  
Wind Chill: 57°   Ceiling: Unl
Heat Index: 57°   Visibility: 6mi
Dew Point: 50°   Wind: 9mph
Humidity: 77%   Direction: 300°WNW
Pressure: 30.12"   Gusts: NA
Location:  39.89°N, 4.27°E
Report Text: LEMH 180400Z 30008KT 260V330 9999 FEW020 14/10 Q1020
Loading
Personal Weather Stations






























Interactive Weather Map New forecast layout! Learn more

10-Day Weather Forecast

Advertisements
Track Severe Weather on mobile